createdAt,value
2018-02-25T00:00:05.215Z,19.60
2018-02-25T00:02:42.567Z,19.80
2018-02-25T00:05:16.179Z,19.80
2018-02-25T00:07:50.043Z,19.60
2018-02-25T00:10:24.505Z,19.80
2018-02-25T00:12:58.246Z,19.70
2018-02-25T00:15:31.914Z,19.80
2018-02-25T00:18:05.741Z,19.90
2018-02-25T00:20:39.519Z,19.90
2018-02-25T00:23:13.509Z,19.90
2018-02-25T00:25:47.323Z,20.10
2018-02-25T00:28:21.776Z,20.00
2018-02-25T00:30:55.406Z,20.00
2018-02-25T00:33:29.259Z,20.10
2018-02-25T00:36:03.071Z,20.00
2018-02-25T00:38:36.826Z,19.70
2018-02-25T00:41:10.632Z,20.00
2018-02-25T00:43:44.487Z,20.00
2018-02-25T00:46:19.612Z,20.10
2018-02-25T00:48:54.086Z,19.90
2018-02-25T00:51:28.733Z,19.90
2018-02-25T00:54:02.517Z,19.90
2018-02-25T00:56:36.922Z,19.90
2018-02-25T00:59:13.165Z,19.90
2018-02-25T01:01:48.434Z,20.00
2018-02-25T01:04:22.188Z,20.00
2018-02-25T01:06:55.858Z,19.80
2018-02-25T01:09:30.362Z,20.10
2018-02-25T01:12:04.805Z,20.10
2018-02-25T01:14:41.566Z,19.90
2018-02-25T01:17:17.269Z,19.90
2018-02-25T01:19:51.076Z,19.80
2018-02-25T01:22:24.838Z,19.70
2018-02-25T01:24:59.815Z,20.30
2018-02-25T01:27:33.585Z,20.30
2018-02-25T01:30:07.136Z,19.80
2018-02-25T01:32:41.710Z,20.30
2018-02-25T01:35:15.480Z,20.30
2018-02-25T01:37:49.234Z,20.40
2018-02-25T01:40:23.853Z,20.30
2018-02-25T01:42:57.520Z,20.20
2018-02-25T01:45:31.198Z,20.40
2018-02-25T01:48:05.017Z,20.40
2018-02-25T01:51:05.134Z,20.60
2018-02-25T01:53:38.910Z,20.50
2018-02-25T01:56:12.493Z,20.30
2018-02-25T01:58:46.184Z,20.50
2018-02-25T02:01:19.818Z,20.50
2018-02-25T02:03:53.431Z,20.50
2018-02-25T02:06:27.876Z,20.40
2018-02-25T02:09:01.521Z,20.40
2018-02-25T02:11:36.057Z,21.10
2018-02-25T02:14:09.653Z,21.10
2018-02-25T02:16:44.331Z,20.70
2018-02-25T02:19:18.774Z,20.70
2018-02-25T02:21:52.713Z,20.70
2018-02-25T02:24:27.319Z,20.80
2018-02-25T02:27:00.936Z,20.70
2018-02-25T02:29:34.701Z,20.90
2018-02-25T02:32:08.658Z,21.10
2018-02-25T02:34:42.433Z,21.20
2018-02-25T02:37:17.035Z,21.20
2018-02-25T02:39:52.318Z,21.50
2018-02-25T02:42:28.406Z,21.50
2018-02-25T02:45:04.691Z,21.70
2018-02-25T02:47:39.752Z,21.70
2018-02-25T02:50:13.371Z,21.90
2018-02-25T02:52:47.159Z,22.10
2018-02-25T02:55:23.081Z,22.80
2018-02-25T02:57:57.660Z,22.80
2018-02-25T03:00:32.638Z,22.80
2018-02-25T03:03:07.205Z,22.80
2018-02-25T03:05:40.902Z,22.80
2018-02-25T03:08:15.388Z,23.10
2018-02-25T03:10:49.183Z,23.10
2018-02-25T03:13:24.513Z,23.10
2018-02-25T03:15:58.132Z,23.20
2018-02-25T03:18:32.591Z,23.60
2018-02-25T03:21:08.040Z,23.70
2018-02-25T03:23:43.176Z,23.80
2018-02-25T03:26:18.646Z,24.00
2018-02-25T03:28:52.954Z,24.00
2018-02-25T03:31:26.565Z,24.00
2018-02-25T03:34:00.288Z,24.10
2018-02-25T03:36:34.067Z,24.10
2018-02-25T03:39:09.418Z,23.90
2018-02-25T03:41:44.350Z,23.90
2018-02-25T03:44:18.137Z,23.90
2018-02-25T03:46:52.552Z,24.20
2018-02-25T03:49:26.261Z,24.20
2018-02-25T03:52:00.673Z,24.00
2018-02-25T03:54:35.345Z,24.20
2018-02-25T03:57:10.845Z,24.20
2018-02-25T03:59:46.408Z,24.70
2018-02-25T04:02:21.684Z,24.80
2018-02-25T04:04:56.898Z,24.80
2018-02-25T04:07:32.041Z,24.80
2018-02-25T04:10:06.531Z,24.80
2018-02-25T04:12:41.081Z,24.80
2018-02-25T04:15:17.498Z,24.90
2018-02-25T04:17:51.277Z,25.10
2018-02-25T04:20:25.920Z,24.90
2018-02-25T04:23:01.811Z,24.80
2018-02-25T04:25:35.558Z,25.00
2018-02-25T04:28:09.852Z,24.90
2018-02-25T04:30:44.296Z,25.10
2018-02-25T04:33:18.061Z,25.10
2018-02-25T04:35:51.885Z,25.40
2018-02-25T04:38:25.551Z,25.40
2018-02-25T04:40:59.293Z,25.70
2018-02-25T04:43:33.817Z,25.90
2018-02-25T04:46:07.512Z,25.90
2018-02-25T04:48:41.292Z,26.10
2018-02-25T04:51:15.814Z,26.40
2018-02-25T04:53:49.558Z,26.40
2018-02-25T04:56:23.891Z,26.40
2018-02-25T04:58:58.632Z,26.70
2018-02-25T05:01:33.861Z,26.80
2018-02-25T05:04:08.411Z,26.80
2018-02-25T05:06:42.258Z,26.80
2018-02-25T05:09:16.775Z,27.20
2018-02-25T05:11:50.561Z,27.20
2018-02-25T05:14:24.346Z,27.30
2018-02-25T05:16:58.093Z,27.30
2018-02-25T05:19:31.897Z,27.50
2018-02-25T05:22:05.546Z,27.50
2018-02-25T05:24:39.324Z,27.70
2018-02-25T05:27:12.962Z,28.00
2018-02-25T05:29:46.721Z,28.20
2018-02-25T05:32:20.375Z,28.10
2018-02-25T05:34:55.448Z,28.40
2018-02-25T05:37:29.144Z,28.40
2018-02-25T05:40:02.918Z,28.80
2018-02-25T05:42:36.689Z,28.90
2018-02-25T05:45:11.179Z,28.80
2018-02-25T05:47:44.865Z,28.80
2018-02-25T05:50:18.598Z,28.80
2018-02-25T05:52:52.301Z,28.80
2018-02-25T05:55:26.824Z,29.20
2018-02-25T05:58:00.672Z,29.20
2018-02-25T06:00:35.302Z,30.00
2018-02-25T06:03:09.658Z,30.70
2018-02-25T06:05:43.361Z,30.70
2018-02-25T06:08:17.118Z,30.60
2018-02-25T06:10:50.728Z,30.90
2018-02-25T06:13:24.492Z,31.50
2018-02-25T06:15:58.217Z,31.70
2018-02-25T06:18:31.993Z,31.50
2018-02-25T06:21:06.273Z,31.90
2018-02-25T06:23:41.460Z,31.80
2018-02-25T06:26:15.216Z,31.80
2018-02-25T06:28:48.925Z,32.30
2018-02-25T06:31:22.666Z,31.70
2018-02-25T06:33:56.650Z,31.60
2018-02-25T06:36:31.255Z,31.50
2018-02-25T06:39:05.061Z,31.50
2018-02-25T06:41:39.562Z,31.40
2018-02-25T06:44:13.254Z,31.00
2018-02-25T06:46:46.987Z,31.00
2018-02-25T06:49:20.680Z,31.00
2018-02-25T06:51:54.240Z,30.60
2018-02-25T06:54:28.652Z,30.40
2018-02-25T06:57:03.651Z,30.50
2018-02-25T06:59:38.235Z,30.40
2018-02-25T07:02:11.979Z,30.40
2018-02-25T07:04:45.737Z,30.20
2018-02-25T07:07:19.575Z,30.10
2018-02-25T07:09:53.278Z,29.80
2018-02-25T07:12:27.085Z,29.80
2018-02-25T07:15:01.660Z,29.20
2018-02-25T07:17:35.512Z,29.20
2018-02-25T07:20:09.254Z,29.00
2018-02-25T07:22:43.026Z,29.00
2018-02-25T07:25:16.872Z,29.00
2018-02-25T07:27:50.672Z,28.80
2018-02-25T07:30:24.440Z,28.00
2018-02-25T07:32:58.274Z,27.80
2018-02-25T07:35:31.988Z,27.60
2018-02-25T07:38:05.702Z,27.40
2018-02-25T07:40:40.540Z,26.90
2018-02-25T07:43:14.927Z,26.00
2018-02-25T07:45:48.590Z,26.00
2018-02-25T07:48:23.083Z,25.80
2018-02-25T07:50:58.094Z,25.80
2018-02-25T07:53:33.277Z,25.10
2018-02-25T07:56:07.839Z,24.40
2018-02-25T07:58:42.004Z,23.40
2018-02-25T08:01:16.596Z,22.90
2018-02-25T08:03:50.416Z,22.30
2018-02-25T08:06:24.142Z,21.30
2018-02-25T08:08:58.677Z,19.60
2018-02-25T08:11:33.807Z,18.20
2018-02-25T08:14:09.019Z,18.20
2018-02-25T08:16:42.795Z,18.20
2018-02-25T08:19:17.438Z,17.10
2018-02-25T08:21:51.956Z,16.30
2018-02-25T08:24:26.675Z,16.20
2018-02-25T08:27:04.337Z,13.90
2018-02-25T08:29:38.962Z,13.90
2018-02-25T08:32:14.300Z,13.60
2018-02-25T08:34:54.732Z,13.40
2018-02-25T08:37:29.740Z,12.60
2018-02-25T08:40:05.097Z,12.30
2018-02-25T08:42:40.781Z,11.80
2018-02-25T08:45:15.236Z,11.40
2018-02-25T08:47:49.586Z,10.60
2018-02-25T08:50:26.882Z,10.60
2018-02-25T08:53:00.859Z,11.00
2018-02-25T08:55:36.304Z,9.60
2018-02-25T08:58:11.746Z,9.60
2018-02-25T09:00:47.121Z,9.70
2018-02-25T09:03:21.710Z,9.50
2018-02-25T09:05:56.192Z,9.10
2018-02-25T09:08:30.158Z,8.30
2018-02-25T09:11:06.961Z,8.50
2018-02-25T09:13:40.735Z,8.50
2018-02-25T09:16:17.353Z,8.00
2018-02-25T09:18:54.798Z,7.90
2018-02-25T09:21:33.710Z,10.00
2018-02-25T09:24:08.088Z,7.40
2018-02-25T09:26:45.845Z,7.50
2018-02-25T09:29:21.284Z,8.40
2018-02-25T09:31:57.760Z,7.00
2018-02-25T09:34:33.716Z,6.10
2018-02-25T09:37:08.062Z,5.60
2018-02-25T09:39:41.787Z,6.10
2018-02-25T09:42:15.537Z,6.70
2018-02-25T09:44:50.057Z,5.60
2018-02-25T09:47:23.618Z,6.10
2018-02-25T09:49:57.329Z,5.70
2018-02-25T09:52:31.785Z,5.60
2018-02-25T09:55:06.327Z,5.50
2018-02-25T09:57:40.918Z,5.60
2018-02-25T10:00:15.295Z,6.00
2018-02-25T10:02:49.804Z,5.10
2018-02-25T10:05:23.854Z,5.00
2018-02-25T10:07:57.670Z,4.70
2018-02-25T10:10:33.338Z,4.90
2018-02-25T10:13:07.551Z,4.70
2018-02-25T10:15:43.123Z,3.70
2018-02-25T10:18:22.074Z,3.70
2018-02-25T10:20:59.825Z,3.00
2018-02-25T10:23:41.574Z,3.40
2018-02-25T10:26:18.120Z,3.00
2018-02-25T10:28:54.296Z,3.60
2018-02-25T10:34:15.913Z,3.70
2018-02-25T10:36:50.379Z,3.90
2018-02-25T10:39:25.584Z,3.30
2018-02-25T10:41:59.418Z,3.30
2018-02-25T10:44:33.014Z,3.70
2018-02-25T10:47:06.853Z,3.30
2018-02-25T10:49:41.344Z,3.30
2018-02-25T10:52:14.922Z,3.30
2018-02-25T10:54:52.660Z,3.40
2018-02-25T10:57:27.020Z,3.30
2018-02-25T11:00:03.079Z,3.20
2018-02-25T11:02:39.089Z,3.10
2018-02-25T11:05:17.702Z,2.40
2018-02-25T11:07:51.417Z,1.30
2018-02-25T11:10:25.117Z,2.00
2018-02-25T11:12:58.980Z,1.60
2018-02-25T11:15:34.083Z,1.40
2018-02-25T11:18:08.576Z,2.10
2018-02-25T11:20:42.793Z,1.60
2018-02-25T11:23:18.432Z,1.30
2018-02-25T11:25:52.885Z,1.50
2018-02-25T11:31:07.484Z,1.20
2018-02-25T11:33:41.085Z,1.20
2018-02-25T11:36:14.859Z,2.10
2018-02-25T11:38:50.037Z,2.10
2018-02-25T11:41:24.770Z,2.50
2018-02-25T11:43:58.334Z,2.20
2018-02-25T11:46:32.382Z,1.50
2018-02-25T11:49:06.292Z,1.30
2018-02-25T11:51:39.936Z,1.00
2018-02-25T11:54:14.382Z,1.00
2018-02-25T11:56:48.932Z,1.00
2018-02-25T11:59:23.612Z,1.00
2018-02-25T12:01:57.972Z,1.00
2018-02-25T12:04:34.701Z,1.00
2018-02-25T12:07:09.220Z,1.00
2018-02-25T12:09:42.854Z,1.00
2018-02-25T12:12:18.202Z,1.00
2018-02-25T12:14:59.250Z,1.00
2018-02-25T12:17:26.427Z,1.00
2018-02-25T12:20:00.639Z,1.00
2018-02-25T12:22:35.161Z,1.00
2018-02-25T12:25:08.769Z,1.00
2018-02-25T12:27:43.121Z,1.00
2018-02-25T12:30:17.464Z,1.00
2018-02-25T12:32:51.694Z,1.00
2018-02-25T12:35:25.464Z,1.00
2018-02-25T12:38:00.468Z,1.00
2018-02-25T12:40:35.349Z,1.00
2018-02-25T12:43:08.981Z,1.00
2018-02-25T12:45:46.197Z,1.00
2018-02-25T12:48:23.361Z,1.00
2018-02-25T12:50:58.117Z,1.00
2018-02-25T12:53:32.892Z,1.00
2018-02-25T12:56:15.190Z,1.00
2018-02-25T13:01:32.296Z,1.00
2018-02-25T13:04:09.292Z,1.00
2018-02-25T13:06:45.227Z,1.00
2018-02-25T13:09:24.110Z,1.00
2018-02-25T13:17:27.727Z,1.00
2018-02-25T13:20:02.381Z,1.00
2018-02-25T13:22:40.605Z,1.00
2018-02-25T13:28:02.744Z,1.00
2018-02-25T13:36:20.111Z,1.00
2018-02-25T13:41:59.095Z,1.00
2018-02-25T13:44:34.449Z,1.00
2018-02-25T13:47:10.076Z,1.00
2018-02-25T13:55:12.689Z,1.00
2018-02-25T13:58:07.121Z,1.00
2018-02-25T14:00:41.649Z,1.00
2018-02-25T14:03:17.990Z,1.00
2018-02-25T14:05:54.302Z,1.00
2018-02-25T14:08:28.909Z,1.00
2018-02-25T14:14:10.944Z,1.00
2018-02-25T14:16:44.993Z,1.00
2018-02-25T14:24:52.785Z,1.00
2018-02-25T14:27:27.541Z,1.00
2018-02-25T14:30:04.761Z,1.00
2018-02-25T14:32:39.703Z,1.00
2018-02-25T14:35:26.658Z,1.00
2018-02-25T14:38:06.638Z,1.00
2018-02-25T14:40:49.284Z,1.00
2018-02-25T14:43:23.600Z,1.00
2018-02-25T14:46:10.147Z,1.00
2018-02-25T14:48:45.308Z,1.70
2018-02-25T14:51:21.619Z,2.80
2018-02-25T14:56:40.163Z,4.50
2018-02-25T15:05:00.780Z,5.20
2018-02-25T15:07:57.306Z,4.90
2018-02-25T15:10:33.512Z,4.90
2018-02-25T15:13:11.562Z,4.90
2018-02-25T15:15:46.642Z,4.90
2018-02-25T15:18:25.999Z,5.10
2018-02-25T15:21:03.235Z,6.00
2018-02-25T15:23:38.488Z,6.30
2018-02-25T15:26:12.603Z,7.00
2018-02-25T15:28:46.848Z,8.10
2018-02-25T15:31:22.367Z,8.60
2018-02-25T15:33:58.014Z,9.10
2018-02-25T15:36:36.448Z,9.00
2018-02-25T15:41:53.093Z,10.00
2018-02-25T15:44:38.937Z,10.70
2018-02-25T15:47:13.597Z,10.80
2018-02-25T15:49:48.605Z,11.00
2018-02-25T15:52:22.300Z,11.00
2018-02-25T15:54:56.538Z,11.80
2018-02-25T15:57:31.736Z,12.60
2018-02-25T16:00:06.399Z,13.30
2018-02-25T16:02:40.154Z,14.00
2018-02-25T16:05:17.387Z,14.80
2018-02-25T16:07:51.044Z,15.30
2018-02-25T16:10:24.849Z,16.00
2018-02-25T16:12:58.510Z,17.10
2018-02-25T16:15:32.950Z,18.40
2018-02-25T16:18:06.542Z,19.00
2018-02-25T16:20:40.747Z,19.30
2018-02-25T16:23:17.345Z,19.40
2018-02-25T16:25:51.178Z,19.60
2018-02-25T16:28:25.852Z,20.10
2018-02-25T16:31:17.565Z,20.50
2018-02-25T16:33:55.114Z,20.90
2018-02-25T16:39:42.948Z,21.50
2018-02-25T16:45:07.599Z,22.10
2018-02-25T16:48:07.136Z,22.40
2018-02-25T16:53:33.786Z,23.70
2018-02-25T16:56:10.530Z,24.10
2018-02-25T17:07:29.776Z,26.00
2018-02-25T17:10:04.988Z,26.70
2018-02-25T17:12:56.325Z,27.10
2018-02-25T17:15:44.077Z,27.80
2018-02-25T18:40:10.358Z,35.20
2018-02-25T18:42:51.358Z,34.50
2018-02-25T19:07:47.473Z,34.60
2018-02-25T19:22:37.415Z,34.50
2018-02-25T19:25:19.758Z,34.30
2018-02-25T19:43:05.262Z,36.80
2018-02-25T19:48:22.616Z,38.50
2018-02-25T19:50:57.556Z,38.80
2018-02-25T19:53:33.756Z,40.50
2018-02-25T19:56:11.406Z,40.50
2018-02-25T19:58:47.315Z,41.50
2018-02-25T20:01:21.352Z,43.10
2018-02-25T20:04:03.940Z,46.00
2018-02-25T20:06:43.788Z,47.00
2018-02-25T20:09:23.781Z,49.00
2018-02-25T20:12:05.136Z,50.10
2018-02-25T20:14:43.796Z,51.90
2018-02-25T20:17:18.504Z,53.10
2018-02-25T20:20:05.583Z,55.50
2018-02-25T20:22:43.910Z,57.00
2018-02-25T20:33:32.785Z,62.50
2018-02-25T20:38:55.959Z,64.90
2018-02-25T20:41:37.856Z,65.70
2018-02-25T20:49:58.286Z,67.60
2018-02-25T20:55:32.464Z,68.00
2018-02-25T20:58:15.692Z,68.30
2018-02-25T21:10:05.696Z,69.00
2018-02-25T21:12:45.835Z,68.70
2018-02-25T21:15:26.001Z,68.50
2018-02-25T21:18:14.237Z,68.40
2018-02-25T21:20:54.904Z,69.40
2018-02-25T21:23:36.198Z,69.30
2018-02-25T21:29:01.406Z,71.40
2018-02-25T21:31:46.330Z,72.40
2018-02-25T22:00:19.924Z,73.20
2018-02-25T22:03:00.098Z,72.70
2018-02-25T22:05:34.557Z,72.80
2018-02-25T22:08:11.155Z,72.00
2018-02-25T22:10:48.681Z,72.30
2018-02-25T22:13:24.127Z,72.00
2018-02-25T22:15:57.994Z,72.00
2018-02-25T22:18:34.380Z,72.40
2018-02-25T22:21:09.518Z,72.60
2018-02-25T22:23:45.116Z,72.50
2018-02-25T22:26:19.484Z,72.50
2018-02-25T22:28:53.507Z,73.00
2018-02-25T22:31:27.589Z,74.40
2018-02-25T22:34:03.337Z,75.50
2018-02-25T22:36:37.295Z,76.70
2018-02-25T22:39:14.582Z,77.60
2018-02-25T22:41:52.753Z,78.70
2018-02-25T22:44:28.581Z,79.30
2018-02-25T22:47:07.676Z,80.00
2018-02-25T22:49:42.527Z,80.50
2018-02-25T22:52:17.422Z,81.20
2018-02-25T22:54:51.318Z,81.90
2018-02-25T22:57:26.963Z,82.30
2018-02-25T23:00:00.710Z,82.30
2018-02-25T23:02:35.585Z,81.60
2018-02-25T23:05:10.829Z,80.80
2018-02-25T23:07:44.590Z,79.50
2018-02-25T23:10:18.442Z,78.90
2018-02-25T23:12:52.231Z,78.40
2018-02-25T23:15:26.516Z,77.90
2018-02-25T23:18:00.327Z,77.10
2018-02-25T23:20:34.857Z,76.80
2018-02-25T23:23:09.906Z,76.50
2018-02-25T23:25:44.350Z,76.20
2018-02-25T23:28:18.009Z,76.10
2018-02-25T23:30:52.641Z,75.50
2018-02-25T23:33:26.278Z,74.60
2018-02-25T23:35:59.893Z,74.70
2018-02-25T23:38:33.684Z,74.50
2018-02-25T23:41:07.347Z,73.40
2018-02-25T23:43:41.066Z,73.40
2018-02-25T23:46:15.384Z,73.50
2018-02-25T23:48:49.592Z,72.80
2018-02-25T23:51:23.188Z,72.90
2018-02-25T23:53:56.859Z,72.90
2018-02-25T23:56:31.366Z,72.40
2018-02-25T23:59:06.965Z,72.40
